Time;durP1;ratioP1;P1;durP2;ratioP2;P2;SDS_P1;SDS_P2;PMS_P1;PMS_P2;Temp;Humidity;BMP_temperature;BMP_pressure;BME280_temperature;BME280_humidity;BME280_pressure;Samples;Min_cycle;Max_cycle;Signal;HPM_P1;HPM_P2
2022/09/17 00:00:39;;;;;;;2.13;0.65;;;10.30;99.90;;;;;;5056652;28;20047;-75
2022/09/17 00:03:06;;;;;;;6.72;0.93;;;10.40;99.90;;;;;;5041023;28;20043;-74
2022/09/17 00:05:32;;;;;;;2.67;0.80;;;10.40;99.90;;;;;;5057394;28;20032;-74
2022/09/17 00:07:58;;;;;;;2.50;0.82;;;10.50;99.90;;;;;;5057530;28;20048;-74
2022/09/17 00:10:24;;;;;;;2.38;0.60;;;10.20;99.90;;;;;;5040569;28;20494;-75
2022/09/17 00:12:50;;;;;;;4.38;1.42;;;9.90;99.90;;;;;;5040569;28;20388;-74
2022/09/17 00:15:16;;;;;;;0.50;0.38;;;10.10;99.90;;;;;;5057098;28;20037;-74
2022/09/17 00:17:42;;;;;;;4.00;0.70;;;10.00;99.90;;;;;;5040433;28;20140;-75
2022/09/17 00:20:11;;;;;;;6.15;0.80;;;10.10;99.90;;;;;;5040632;28;20113;-74
2022/09/17 00:22:38;;;;;;;9.68;0.70;;;9.90;99.90;;;;;;5040886;28;20106;-74
2022/09/17 00:25:05;;;;;;;2.22;0.68;;;10.00;99.90;;;;;;5024281;28;20040;-75
2022/09/17 00:27:31;;;;;;;2.13;0.57;;;9.90;99.90;;;;;;5057272;28;20483;-74
2022/09/17 00:29:57;;;;;;;3.58;0.70;;;9.90;99.90;;;;;;5023789;28;20079;-75
2022/09/17 00:32:23;;;;;;;3.80;0.90;;;9.80;99.90;;;;;;5057070;28;20128;-74
2022/09/17 00:34:51;;;;;;;2.20;0.82;;;9.80;99.90;;;;;;5056724;28;20048;-74
2022/09/17 00:37:18;;;;;;;2.55;0.60;;;9.80;99.90;;;;;;5040507;28;20051;-74
2022/09/17 00:39:43;;;;;;;7.88;1.20;;;9.70;99.90;;;;;;5056871;28;20484;-74
2022/09/17 00:42:14;;;;;;;5.85;0.90;;;9.70;99.90;;;;;;5040122;28;20060;-75
2022/09/17 00:44:55;;;;;;;1.73;0.80;;;9.60;99.90;;;;;;5039953;28;20352;-74
2022/09/17 00:47:29;;;;;;;1.92;0.60;;;9.70;99.90;;;;;;5056546;28;20037;-74
2022/09/17 00:50:21;;;;;;;3.47;0.73;;;9.80;99.90;;;;;;5056537;28;20045;-74
2022/09/17 00:52:55;;;;;;;0.75;0.28;;;9.70;99.90;;;;;;5056709;28;20072;-74
2022/09/17 00:56:00;;;;;;;1.50;0.65;;;9.70;99.90;;;;;;5039717;28;20044;-74
2022/09/17 00:58:27;;;;;;;5.50;0.93;;;9.80;99.90;;;;;;5056559;28;20365;-74
2022/09/17 01:00:53;;;;;;;3.70;0.50;;;9.90;99.90;;;;;;5039675;28;20086;-75
2022/09/17 01:03:18;;;;;;;4.03;0.63;;;10.00;99.90;;;;;;5039636;28;20048;-74
2022/09/17 01:06:07;;;;;;;0.60;0.57;;;9.90;99.90;;;;;;5056174;28;20487;-74
2022/09/17 01:08:38;;;;;;;9.32;0.60;;;10.00;99.90;;;;;;5056127;28;20041;-74
2022/09/17 01:11:37;;;;;;;8.68;0.55;;;10.30;99.90;;;;;;5055943;28;20072;-75
2022/09/17 01:14:06;;;;;;;2.65;0.80;;;9.80;99.90;;;;;;5056635;28;20458;-75
2022/09/17 01:16:55;;;;;;;2.83;0.35;;;9.90;99.90;;;;;;5039750;28;20045;-75
2022/09/17 01:19:28;;;;;;;4.15;0.43;;;9.90;99.90;;;;;;5055835;28;20060;-75
2022/09/17 01:22:29;;;;;;;2.60;0.65;;;10.30;99.90;;;;;;5056206;28;20395;-74
2022/09/17 01:24:58;;;;;;;0.30;0.22;;;9.80;99.90;;;;;;4985736;28;20143;-74
2022/09/17 01:27:35;;;;;;;1.85;0.60;;;9.90;99.90;;;;;;5056019;28;20177;-75
2022/09/17 01:30:20;;;;;;;3.10;0.50;;;9.90;99.90;;;;;;5055747;28;20040;-75
2022/09/17 01:33:02;;;;;;;1.63;0.40;;;9.80;99.90;;;;;;5056027;28;20625;-74
2022/09/17 01:35:46;;;;;;;5.50;0.52;;;9.80;99.90;;;;;;5055667;28;20080;-74
2022/09/17 01:38:37;;;;;;;5.82;0.85;;;9.70;99.90;;;;;;5039121;28;20036;-75
2022/09/17 01:41:32;;;;;;;6.72;0.50;;;9.70;99.90;;;;;;5055874;28;20495;-75
2022/09/17 01:44:29;;;;;;;4.78;0.70;;;9.60;99.90;;;;;;5038884;28;20151;-74
2022/09/17 01:47:04;;;;;;;1.75;0.70;;;9.60;99.90;;;;;;5038880;28;20040;-74
2022/09/17 01:49:34;;;;;;;0.98;0.60;;;9.90;99.90;;;;;;5038885;28;20044;-75
2022/09/17 01:52:00;;;;;;;2.65;0.70;;;9.70;99.90;;;;;;5038820;28;20040;-74
2022/09/17 01:54:48;;;;;;;2.42;0.55;;;9.70;99.90;;;;;;5039106;28;20457;-74
2022/09/17 01:57:13;;;;;;;1.67;0.70;;;9.70;99.90;;;;;;5055638;28;20044;-74
2022/09/17 01:59:44;;;;;;;2.83;0.60;;;10.00;99.90;;;;;;5055367;28;20037;-75
2022/09/17 02:02:35;;;;;;;1.33;0.40;;;10.20;99.90;;;;;;5055585;28;20051;-74
2022/09/17 02:05:17;;;;;;;3.30;1.00;;;9.70;99.90;;;;;;5055237;28;20119;-75
2022/09/17 02:07:49;;;;;;;7.03;0.50;;;9.80;99.90;;;;;;5038580;28;20174;-73
2022/09/17 02:10:26;;;;;;;2.13;0.70;;;9.50;99.90;;;;;;5055251;28;20124;-74
2022/09/17 02:13:15;;;;;;;2.55;0.68;;;9.90;99.90;;;;;;5038553;28;20040;-74
2022/09/17 02:15:48;;;;;;;3.03;0.55;;;9.50;99.90;;;;;;5038607;28;20127;-76
2022/09/17 02:18:22;;;;;;;5.22;0.65;;;9.50;99.90;;;;;;5055042;28;20167;-74
2022/09/17 02:20:53;;;;;;;5.20;0.70;;;9.70;99.90;;;;;;5055266;28;20419;-74
2022/09/17 02:23:26;;;;;;;;;;;10.00;99.90;;;;;;5057364;28;20045;-74
2022/09/17 02:25:58;;;;;;;1.90;0.93;;;9.40;99.90;;;;;;5059451;28;20256;-74
2022/09/17 02:28:37;;;;;;;4.40;0.68;;;9.60;99.90;;;;;;5059434;28;20056;-74
2022/09/17 02:31:03;;;;;;;5.63;1.02;;;9.20;99.90;;;;;;5059204;28;20040;-74
2022/09/17 02:33:30;;;;;;;6.68;0.88;;;9.70;99.90;;;;;;5026022;28;20515;-74
2022/09/17 02:35:56;;;;;;;5.68;0.60;;;9.30;99.90;;;;;;5026265;28;20048;-74
2022/09/17 02:38:26;;;;;;;2.97;0.63;;;10.10;99.90;;;;;;5025902;28;20037;-74
2022/09/17 02:41:01;;;;;;;1.10;0.40;;;9.60;99.90;;;;;;5058958;28;20040;-74
2022/09/17 02:44:05;;;;;;;3.50;0.75;;;9.20;99.90;;;;;;5042223;28;20041;-73
2022/09/17 02:47:05;;;;;;;5.53;0.68;;;9.10;99.90;;;;;;4979318;28;20572;-75
2022/09/17 02:49:49;;;;;;;3.10;1.23;;;9.20;99.90;;;;;;4979133;28;20042;-74
2022/09/17 02:52:43;;;;;;;0.90;0.43;;;9.20;99.90;;;;;;5028113;28;20106;-75
2022/09/17 02:55:15;;;;;;;2.05;0.73;;;9.30;99.90;;;;;;5059084;28;20483;-74
2022/09/17 02:57:59;;;;;;;3.60;0.73;;;9.20;99.90;;;;;;5042255;28;20406;-74
2022/09/17 03:00:27;;;;;;;4.22;1.08;;;9.40;99.90;;;;;;5058655;28;20043;-75
2022/09/17 03:03:00;;;;;;;7.78;0.60;;;9.40;99.90;;;;;;5042040;28;20557;-75
2022/09/17 03:05:28;;;;;;;1.30;0.60;;;9.70;99.90;;;;;;5058760;28;20492;-73
2022/09/17 03:07:58;;;;;;;1.10;0.45;;;9.20;99.90;;;;;;5041777;28;20051;-75
2022/09/17 03:10:24;;;;;;;5.80;0.98;;;9.40;99.90;;;;;;5058434;28;20029;-75
2022/09/17 03:12:52;;;;;;;3.72;0.93;;;9.30;99.90;;;;;;5058607;28;20165;-74
2022/09/17 03:15:18;;;;;;;2.83;0.50;;;9.20;99.90;;;;;;5041713;28;20051;-74
2022/09/17 03:17:43;;;;;;;10.52;0.82;;;9.30;99.90;;;;;;5058544;28;20033;-75
2022/09/17 03:20:09;;;;;;;1.20;0.50;;;9.40;99.90;;;;;;5041591;28;20064;-75
2022/09/17 03:22:35;;;;;;;4.38;0.70;;;9.40;99.90;;;;;;5041648;28;20531;-74
2022/09/17 03:25:01;;;;;;;2.60;0.60;;;9.60;99.90;;;;;;5024954;28;20041;-74
2022/09/17 03:27:26;;;;;;;1.38;0.60;;;9.30;99.90;;;;;;5041732;28;20047;-74
2022/09/17 03:29:52;;;;;;;5.82;0.40;;;9.30;99.90;;;;;;5058104;28;20036;-74
2022/09/17 03:32:18;;;;;;;1.90;0.43;;;9.30;99.90;;;;;;5024991;28;20068;-74
2022/09/17 03:34:45;;;;;;;0.98;0.40;;;9.20;99.90;;;;;;5058171;28;20036;-74
2022/09/17 03:37:12;;;;;;;2.67;0.70;;;9.40;99.90;;;;;;5057866;28;20040;-74
2022/09/17 03:39:37;;;;;;;2.17;0.60;;;9.40;99.90;;;;;;5041206;28;20044;-74
2022/09/17 03:42:03;;;;;;;1.25;0.50;;;9.20;99.90;;;;;;5024672;28;20044;-75
2022/09/17 03:44:29;;;;;;;1.92;0.50;;;9.20;99.90;;;;;;5057687;28;20098;-74
2022/09/17 03:46:55;;;;;;;2.20;1.00;;;9.30;99.90;;;;;;5041354;28;20063;-75
2022/09/17 03:49:22;;;;;;;2.83;0.63;;;9.10;99.90;;;;;;5041136;28;20039;-74
2022/09/17 03:51:48;;;;;;;2.10;0.60;;;9.30;99.90;;;;;;5041302;28;20480;-74
2022/09/17 03:54:14;;;;;;;1.33;0.63;;;9.30;99.90;;;;;;5041038;28;20097;-74
2022/09/17 03:56:40;;;;;;;1.73;0.55;;;9.30;99.90;;;;;;5024710;28;20135;-74
2022/09/17 03:59:05;;;;;;;2.20;0.70;;;9.40;99.90;;;;;;5057585;28;20051;-74
2022/09/17 04:01:31;;;;;;;3.05;0.82;;;9.50;99.90;;;;;;5024424;28;20499;-74
2022/09/17 04:03:57;;;;;;;4.47;0.80;;;10.00;99.90;;;;;;5040900;28;20056;-74
2022/09/17 04:06:23;;;;;;;1.20;0.50;;;9.50;99.90;;;;;;5041028;28;20041;-73
2022/09/17 04:08:48;;;;;;;2.00;0.45;;;9.50;99.90;;;;;;5041007;28;20119;-73
2022/09/17 04:11:14;;;;;;;4.85;0.35;;;9.60;99.90;;;;;;5040967;28;20036;-74
2022/09/17 04:13:40;;;;;;;1.95;0.45;;;9.60;99.90;;;;;;5057625;28;20040;-73
2022/09/17 04:16:06;;;;;;;1.65;0.50;;;9.60;99.90;;;;;;5040799;28;20041;-74
2022/09/17 04:18:31;;;;;;;1.65;0.35;;;9.60;99.90;;;;;;5023982;28;20508;-73
2022/09/17 04:20:57;;;;;;;10.80;0.90;;;10.20;99.90;;;;;;5040920;28;20074;-74
2022/09/17 04:23:23;;;;;;;2.75;0.63;;;9.50;99.90;;;;;;5023784;28;20044;-73
2022/09/17 04:25:49;;;;;;;1.85;0.50;;;9.60;99.90;;;;;;5057030;28;20032;-74
2022/09/17 04:28:14;;;;;;;3.03;0.52;;;9.70;99.90;;;;;;5057033;28;20111;-73
2022/09/17 04:30:42;;;;;;;4.13;0.68;;;9.70;99.90;;;;;;5040649;28;20079;-73
2022/09/17 04:33:07;;;;;;;0.57;0.30;;;9.30;99.90;;;;;;5040795;28;20123;-73
2022/09/17 04:35:33;;;;;;;2.95;0.40;;;9.30;99.90;;;;;;5040429;28;20139;-74
2022/09/17 04:37:59;;;;;;;3.58;0.50;;;9.30;99.90;;;;;;5040247;28;20040;-73
2022/09/17 04:40:26;;;;;;;2.50;0.65;;;9.20;99.90;;;;;;5023747;28;20040;-73
2022/09/17 04:42:58;;;;;;;0.85;0.60;;;9.30;99.90;;;;;;5056622;28;20051;-74
2022/09/17 04:45:24;;;;;;;1.27;0.20;;;9.40;99.90;;;;;;5023562;28;20123;-74
2022/09/17 04:47:50;;;;;;;0.47;0.40;;;9.30;99.90;;;;;;5056686;28;20059;-73
2022/09/17 04:50:17;;;;;;;0.85;0.32;;;9.10;99.90;;;;;;5056612;28;20075;-73
2022/09/17 04:52:44;;;;;;;4.10;0.40;;;9.20;99.90;;;;;;5040074;28;20036;-73
2022/09/17 04:55:10;;;;;;;0.77;0.50;;;9.10;99.90;;;;;;5040039;28;20036;-74
2022/09/17 04:57:36;;;;;;;4.85;0.60;;;9.40;99.90;;;;;;5056521;28;20048;-73
2022/09/17 05:00:08;;;;;;;1.13;0.22;;;9.80;99.90;;;;;;5039730;28;20040;-73
2022/09/17 05:02:34;;;;;;;1.30;0.60;;;9.10;99.90;;;;;;5056331;28;20036;-73
2022/09/17 05:05:00;;;;;;;4.82;0.47;;;9.30;99.90;;;;;;5039632;28;20067;-73
2022/09/17 05:07:25;;;;;;;0.47;0.47;;;9.40;99.90;;;;;;5039712;28;20036;-73
2022/09/17 05:09:52;;;;;;;3.60;0.57;;;9.00;99.90;;;;;;5039565;28;20068;-75
2022/09/17 05:12:18;;;;;;;0.82;0.30;;;8.90;99.90;;;;;;5056242;28;20098;-73
2022/09/17 05:14:44;;;;;;;0.82;0.50;;;9.10;99.90;;;;;;5056340;28;20106;-74
2022/09/17 05:17:10;;;;;;;5.25;0.70;;;8.90;99.90;;;;;;5056131;28;20040;-73
2022/09/17 05:19:36;;;;;;;3.92;0.65;;;8.90;99.90;;;;;;5039421;28;20091;-73
2022/09/17 05:22:02;;;;;;;4.13;0.47;;;8.90;99.90;;;;;;5056225;28;20400;-73
2022/09/17 05:24:28;;;;;;;3.80;0.50;;;8.90;99.90;;;;;;5039301;28;20123;-74
2022/09/17 05:26:54;;;;;;;6.35;0.57;;;9.00;99.90;;;;;;5056652;28;20437;-74
2022/09/17 05:29:19;;;;;;;3.55;0.52;;;8.90;99.90;;;;;;5023018;28;20041;-73
2022/09/17 05:31:45;;;;;;;5.95;0.63;;;8.90;99.90;;;;;;5039707;28;20128;-74
2022/09/17 05:34:11;;;;;;;2.13;0.50;;;8.90;99.90;;;;;;5039365;28;20403;-76
2022/09/17 05:36:36;;;;;;;2.08;0.40;;;8.90;99.90;;;;;;5055818;28;20064;-75
2022/09/17 05:39:02;;;;;;;6.82;0.98;;;9.10;99.90;;;;;;5022931;28;20384;-75
2022/09/17 05:41:28;;;;;;;2.10;0.50;;;9.00;99.90;;;;;;5038891;28;20048;-75
2022/09/17 05:43:54;;;;;;;3.45;0.68;;;9.80;99.90;;;;;;5038992;28;20040;-77
2022/09/17 05:46:19;;;;;;;2.80;0.60;;;9.20;99.90;;;;;;5055599;28;20112;-76
2022/09/17 05:48:45;;;;;;;0.90;0.47;;;9.50;99.90;;;;;;5055505;28;20045;-77
2022/09/17 05:51:11;;;;;;;1.98;0.50;;;9.30;99.90;;;;;;5022809;28;20086;-76
2022/09/17 05:53:37;;;;;;;3.03;0.70;;;9.30;99.90;;;;;;5039091;28;20036;-76
2022/09/17 05:56:03;;;;;;;2.08;0.50;;;10.50;99.90;;;;;;5055305;28;20036;-76
2022/09/17 05:58:28;;;;;;;2.65;0.57;;;9.30;99.90;;;;;;5054744;28;20147;-76
2022/09/17 06:00:54;;;;;;;1.27;0.63;;;9.80;99.90;;;;;;5038967;28;20075;-76
2022/09/17 06:03:21;;;;;;;7.28;0.60;;;10.10;99.90;;;;;;5055276;28;20044;-77
2022/09/17 06:05:58;;;;;;;6.97;0.98;;;10.10;99.90;;;;;;5038568;28;20036;-76
2022/09/17 06:08:25;;;;;;;0.95;0.28;;;10.20;99.90;;;;;;5038584;28;20063;-76
2022/09/17 06:10:51;;;;;;;7.43;0.68;;;10.20;99.90;;;;;;5055322;28;20037;-77
2022/09/17 06:13:18;;;;;;;2.05;0.60;;;10.20;99.90;;;;;;5055139;28;20048;-76
2022/09/17 06:15:53;;;;;;;1.40;0.40;;;10.20;99.90;;;;;;5055008;28;20067;-75
2022/09/17 06:18:20;;;;;;;0.77;0.40;;;10.20;99.90;;;;;;5038517;28;20477;-74
2022/09/17 06:20:58;;;;;;;4.28;1.13;;;10.10;99.90;;;;;;5022218;28;20044;-74
2022/09/17 06:23:24;;;;;;;0.77;0.50;;;10.10;99.90;;;;;;5054837;28;20128;-74
2022/09/17 06:25:58;;;;;;;2.08;0.45;;;10.10;99.90;;;;;;5038199;28;20036;-76
2022/09/17 06:28:25;;;;;;;7.75;4.68;;;10.10;99.90;;;;;;5022413;28;20029;-76
2022/09/17 06:30:53;;;;;;;1.15;0.40;;;10.00;99.90;;;;;;5054693;28;20147;-75
2022/09/17 06:33:20;;;;;;;4.45;0.40;;;10.00;99.90;;;;;;5055090;28;20380;-76
2022/09/17 06:35:46;;;;;;;0.98;0.28;;;9.90;99.90;;;;;;5038305;28;20051;-76
2022/09/17 06:38:12;;;;;;;0.43;0.30;;;9.90;99.90;;;;;;5054683;28;20049;-76
2022/09/17 06:40:38;;;;;;;3.22;0.50;;;10.10;99.90;;;;;;5039412;28;20529;-74
2022/09/17 06:43:04;;;;;;;3.38;0.60;;;9.80;99.90;;;;;;5038522;28;20080;-75
2022/09/17 06:45:30;;;;;;;1.85;0.35;;;9.70;99.90;;;;;;5054735;28;20082;-75
2022/09/17 06:47:56;;;;;;;1.38;0.30;;;9.70;99.90;;;;;;5037893;28;20051;-76
2022/09/17 06:50:22;;;;;;;1.55;0.35;;;9.60;99.90;;;;;;5037784;28;20032;-75
2022/09/17 06:52:50;;;;;;;3.88;0.43;;;9.60;99.90;;;;;;5021541;28;20123;-74
2022/09/17 06:55:16;;;;;;;0.77;0.35;;;9.50;99.90;;;;;;5054827;28;20075;-75
2022/09/17 06:57:42;;;;;;;0.95;0.32;;;9.70;99.90;;;;;;5038628;28;20083;-75
2022/09/17 07:00:09;;;;;;;3.30;0.50;;;9.80;99.90;;;;;;5038241;28;20047;-78
2022/09/17 07:02:34;;;;;;;0.15;0.15;;;10.00;99.90;;;;;;5054669;28;20068;-78
2022/09/17 07:05:01;;;;;;;0.17;0.17;;;10.20;99.90;;;;;;5054625;28;20470;-78
2022/09/17 07:07:27;;;;;;;0.52;0.30;;;10.30;99.90;;;;;;5054884;28;20125;-78
2022/09/17 07:09:53;;;;;;;3.47;0.47;;;10.30;99.90;;;;;;5040804;28;20479;-78
2022/09/17 07:12:20;;;;;;;0.85;0.20;;;10.30;99.90;;;;;;5025514;28;20032;-76
2022/09/17 07:14:49;;;;;;;1.38;0.40;;;10.30;99.90;;;;;;5042445;28;20098;-76
2022/09/17 07:17:15;;;;;;;3.80;0.73;;;10.40;99.90;;;;;;5041927;28;20488;-76
2022/09/17 07:19:41;;;;;;;4.88;0.47;;;10.40;99.90;;;;;;5041483;28;20185;-77
2022/09/17 07:22:07;;;;;;;1.75;0.30;;;10.50;99.90;;;;;;5041635;28;20041;-78
2022/09/17 07:24:33;;;;;;;0.30;0.30;;;10.60;99.90;;;;;;5058040;28;20105;-77
2022/09/17 07:26:59;;;;;;;1.55;0.35;;;;;;;;;;5058063;28;20041;-77
2022/09/17 07:29:26;;;;;;;0.70;0.30;;;10.80;99.90;;;;;;5041706;28;20032;-77
2022/09/17 07:31:55;;;;;;;0.35;0.30;;;11.00;99.90;;;;;;5024989;28;20056;-77
2022/09/17 07:34:21;;;;;;;0.50;0.32;;;;;;;;;;5025028;28;20047;-77
2022/09/17 07:36:47;;;;;;;1.80;0.40;;;;;;;;;;5041236;28;20047;-77
2022/09/17 07:39:13;;;;;;;5.55;0.50;;;;;;;;;;5057851;28;20036;-77
2022/09/17 07:41:39;;;;;;;2.70;0.55;;;11.40;99.90;;;;;;5041227;28;20040;-78
2022/09/17 07:44:08;;;;;;;5.93;0.63;;;11.50;99.90;;;;;;5008451;28;20098;-78
2022/09/17 07:46:35;;;;;;;2.63;0.65;;;11.50;99.90;;;;;;5041908;28;20079;-78
2022/09/17 07:49:01;;;;;;;2.42;0.60;;;11.40;99.90;;;;;;5057661;28;20124;-78
2022/09/17 07:51:27;;;;;;;2.20;0.65;;;11.40;99.90;;;;;;5024723;28;20470;-77
2022/09/17 07:53:58;;;;;;;2.90;0.82;;;11.40;99.90;;;;;;5057544;28;20040;-76
2022/09/17 07:56:25;;;;;;;4.82;0.68;;;11.30;99.90;;;;;;5024509;28;20127;-76
2022/09/17 07:58:51;;;;;;;0.77;0.35;;;11.70;99.90;;;;;;5057771;28;20048;-76
2022/09/17 08:01:19;;;;;;;3.20;0.65;;;11.50;99.90;;;;;;5057796;28;20084;-80
2022/09/17 08:04:07;;;;;;;3.67;0.82;;;11.60;99.90;;;;;;5057356;28;20049;-79
2022/09/17 08:06:47;;;;;;;0.45;0.32;;;11.70;99.90;;;;;;5041495;28;20071;-79
2022/09/17 08:09:14;;;;;;;1.83;0.40;;;11.80;99.90;;;;;;5028134;28;20036;-76
2022/09/17 08:11:41;;;;;;;3.28;0.47;;;11.90;99.90;;;;;;5074795;28;20080;-75
2022/09/17 08:14:10;;;;;;;2.25;0.60;;;12.00;99.90;;;;;;5057384;28;20091;-77
2022/09/17 08:16:36;;;;;;;1.08;0.57;;;12.10;99.90;;;;;;5040774;28;20037;-76
2022/09/17 08:19:02;;;;;;;4.20;0.47;;;12.30;99.90;;;;;;5040171;28;20059;-78
2022/09/17 08:21:27;;;;;;;2.42;0.73;;;12.50;99.90;;;;;;5023184;28;20131;-78
2022/09/17 08:23:53;;;;;;;3.70;0.60;;;12.40;99.90;;;;;;5056926;28;20071;-75
2022/09/17 08:26:21;;;;;;;1.48;0.57;;;12.30;99.90;;;;;;5024184;28;20052;-75
2022/09/17 08:28:49;;;;;;;1.05;0.38;;;12.20;99.90;;;;;;5057236;28;20117;-76
2022/09/17 08:31:17;;;;;;;1.23;0.85;;;12.10;99.90;;;;;;5040611;28;20059;-76
2022/09/17 08:33:44;;;;;;;0.38;0.38;;;12.10;99.90;;;;;;5040237;28;20132;-75
2022/09/17 08:36:11;;;;;;;1.67;0.45;;;11.90;99.90;;;;;;5057097;28;20495;-75
2022/09/17 08:38:38;;;;;;;0.65;0.43;;;11.60;99.90;;;;;;5040145;28;20047;-75
2022/09/17 08:41:13;;;;;;;0.82;0.50;;;11.40;99.90;;;;;;5057162;28;20086;-77
2022/09/17 08:43:48;;;;;;;1.27;0.32;;;11.20;99.90;;;;;;5039967;28;20135;-75
2022/09/17 08:46:14;;;;;;;5.45;0.55;;;11.00;99.90;;;;;;5040455;28;20037;-75
2022/09/17 08:49:01;;;;;;;1.27;0.30;;;10.90;99.90;;;;;;5040033;28;20032;-76
2022/09/17 08:51:40;;;;;;;1.25;0.60;;;11.00;99.90;;;;;;5056728;28;20511;-75
2022/09/17 08:54:30;;;;;;;0.47;0.47;;;11.10;99.90;;;;;;5039891;28;20044;-74
2022/09/17 08:57:12;;;;;;;1.48;0.60;;;11.20;99.90;;;;;;5039734;28;20037;-75
2022/09/17 08:59:59;;;;;;;3.50;0.60;;;11.60;99.90;;;;;;5056302;28;20538;-74
2022/09/17 09:02:32;;;;;;;1.83;0.43;;;11.50;99.90;;;;;;5056224;28;20049;-76
2022/09/17 09:05:01;;;;;;;2.08;0.68;;;11.60;99.90;;;;;;5055990;28;20051;-77
2022/09/17 09:07:42;;;;;;;2.35;0.47;;;11.70;99.90;;;;;;5056181;28;20105;-75
2022/09/17 09:10:30;;;;;;;1.50;0.25;;;12.00;99.90;;;;;;5039767;28;20380;-75
2022/09/17 09:12:59;;;;;;;4.68;0.60;;;12.20;99.90;;;;;;5039468;28;20036;-76
2022/09/17 09:15:40;;;;;;;2.35;0.30;;;12.20;99.90;;;;;;5023086;28;20037;-75
2022/09/17 09:18:22;;;;;;;1.10;0.40;;;12.40;99.90;;;;;;5055940;28;20094;-75
2022/09/17 09:20:52;;;;;;;1.60;0.40;;;12.20;99.90;;;;;;5055903;28;20094;-75
2022/09/17 09:23:38;;;;;;;1.98;0.57;;;12.10;99.90;;;;;;5055995;28;20458;-75
2022/09/17 09:26:13;;;;;;;1.75;0.50;;;12.20;99.90;;;;;;5039335;28;20064;-75
2022/09/17 09:28:44;;;;;;;1.80;0.40;;;12.10;99.90;;;;;;5039458;28;20373;-76
2022/09/17 09:31:32;;;;;;;0.60;0.30;;;12.10;99.90;;;;;;5039144;28;20032;-76
2022/09/17 09:34:00;;;;;;;4.38;0.52;;;12.20;99.90;;;;;;5056074;28;20526;-77
2022/09/17 09:36:28;;;;;;;1.63;0.40;;;12.40;99.90;;;;;;5055688;28;20084;-76
2022/09/17 09:39:00;;;;;;;1.77;0.60;;;12.40;99.90;;;;;;5055606;28;20048;-76
2022/09/17 09:41:53;;;;;;;1.48;0.40;;;12.40;99.90;;;;;;5039247;28;20507;-76
2022/09/17 09:44:19;;;;;;;1.58;0.47;;;12.10;99.90;;;;;;5055417;28;20127;-76
2022/09/17 09:47:15;;;;;;;3.42;0.50;;;11.90;99.90;;;;;;5055540;28;20041;-76
2022/09/17 09:49:59;;;;;;;0.55;0.40;;;11.90;99.90;;;;;;5038790;28;20037;-77
2022/09/17 09:52:43;;;;;;;3.20;0.82;;;12.00;99.90;;;;;;5055434;28;20048;-76
2022/09/17 09:55:37;;;;;;;4.07;0.60;;;12.40;99.90;;;;;;5038735;28;20041;-75
2022/09/17 09:58:18;;;;;;;1.98;0.43;;;12.50;99.90;;;;;;5055289;28;20049;-76
2022/09/17 10:00:43;;;;;;;0.85;0.30;;;12.30;99.90;;;;;;5055380;28;20078;-75
2022/09/17 10:03:17;;;;;;;1.38;0.40;;;12.00;99.90;;;;;;5022115;28;20048;-74
2022/09/17 10:06:04;;;;;;;1.63;0.32;;;11.60;99.90;;;;;;5055430;28;20102;-75
2022/09/17 10:09:00;;;;;;;0.63;0.20;;;11.40;99.90;;;;;;5055210;28;20097;-76
2022/09/17 10:11:28;;;;;;;2.10;0.45;;;11.50;99.90;;;;;;5041504;28;20083;-75
2022/09/17 10:14:13;;;;;;;2.45;0.65;;;11.50;99.90;;;;;;5054983;28;20111;-75
2022/09/17 10:16:39;;;;;;;2.63;0.65;;;11.80;99.90;;;;;;5038526;28;20040;-76
2022/09/17 10:19:04;;;;;;;5.82;0.68;;;12.10;99.90;;;;;;5054972;28;20140;-75
2022/09/17 10:21:31;;;;;;;0.68;0.50;;;12.30;99.90;;;;;;5055149;28;20080;-76
2022/09/17 10:23:59;;;;;;;2.63;0.55;;;12.30;99.90;;;;;;5054943;28;20055;-75
2022/09/17 10:26:31;;;;;;;0.40;0.30;;;12.70;99.90;;;;;;5038637;28;20475;-75
2022/09/17 10:29:03;;;;;;;1.38;0.52;;;12.80;99.90;;;;;;5055151;28;20045;-75
2022/09/17 10:31:47;;;;;;;0.20;0.20;;;12.90;99.90;;;;;;5038329;28;20036;-74
2022/09/17 10:34:27;;;;;;;1.25;0.45;;;13.30;99.90;;;;;;5038733;28;20131;-74
2022/09/17 10:36:55;;;;;;;1.48;0.60;;;13.40;99.90;;;;;;5054809;28;20040;-75
2022/09/17 10:39:36;;;;;;;3.58;0.52;;;13.60;99.90;;;;;;5054875;28;20044;-74
2022/09/17 10:42:05;;;;;;;2.53;0.65;;;13.90;99.90;;;;;;5038488;28;20146;-75
2022/09/17 10:44:35;;;;;;;2.92;0.75;;;13.90;99.90;;;;;;5057051;28;20079;-75
2022/09/17 10:47:13;;;;;;;4.75;0.90;;;13.80;99.90;;;;;;5042381;28;20044;-75
2022/09/17 10:49:46;;;;;;;4.63;0.55;;;13.70;99.90;;;;;;5042198;28;20078;-75
2022/09/17 10:52:25;;;;;;;3.25;0.85;;;13.30;99.90;;;;;;5058921;28;20048;-77
2022/09/17 10:55:10;;;;;;;0.25;0.25;;;12.80;99.90;;;;;;5042078;28;20044;-73
2022/09/17 10:57:38;;;;;;;5.45;0.60;;;12.60;99.90;;;;;;5041921;28;20040;-74
2022/09/17 11:00:25;;;;;;;2.45;0.50;;;12.50;99.90;;;;;;5041799;28;20071;-75
2022/09/17 11:03:31;;;;;;;2.55;0.70;;;12.40;99.90;;;;;;5058607;28;20101;-75
2022/09/17 11:06:09;;;;;;;2.75;0.63;;;12.40;99.90;;;;;;5058432;28;20123;-74
2022/09/17 11:08:51;;;;;;;4.32;0.88;;;12.40;99.90;;;;;;5058349;28;20040;-74
2022/09/17 11:11:51;;;;;;;0.75;0.40;;;12.30;99.90;;;;;;5041426;28;20064;-74
2022/09/17 11:14:36;;;;;;;4.32;0.98;;;12.50;99.90;;;;;;5057971;28;20124;-74
2022/09/17 11:17:23;;;;;;;2.42;0.45;;;12.50;99.90;;;;;;5058286;28;20135;-74
2022/09/17 11:19:57;;;;;;;5.63;0.43;;;12.50;99.90;;;;;;5041448;28;20078;-74
2022/09/17 11:22:45;;;;;;;3.50;0.93;;;12.50;99.90;;;;;;5058227;28;20041;-74
2022/09/17 11:25:35;;;;;;;1.48;0.60;;;12.30;99.90;;;;;;5058123;28;20047;-74
2022/09/17 11:28:42;;;;;;;0.52;0.30;;;12.20;99.90;;;;;;5058159;28;20036;-74
2022/09/17 11:31:54;;;;;;;1.83;0.60;;;12.30;99.90;;;;;;5057607;28;20048;-74
2022/09/17 11:34:33;;;;;;;1.35;0.70;;;12.40;99.90;;;;;;5041603;28;20550;-74
2022/09/17 11:37:13;;;;;;;1.33;0.43;;;12.60;99.90;;;;;;5057892;28;20048;-74
2022/09/17 11:40:05;;;;;;;2.72;0.80;;;12.80;99.90;;;;;;5041314;28;20075;-74
2022/09/17 11:42:36;;;;;;;2.13;0.57;;;13.00;99.90;;;;;;5037465;28;20054;-74
2022/09/17 11:45:31;;;;;;;1.33;0.52;;;13.00;99.90;;;;;;5057709;28;20492;-74
2022/09/17 11:48:12;;;;;;;1.85;0.45;;;12.80;99.90;;;;;;5057979;28;20460;-74
2022/09/17 11:51:04;;;;;;;3.60;0.57;;;12.70;99.90;;;;;;5057740;28;20039;-74
2022/09/17 11:53:36;;;;;;;6.70;1.02;;;12.60;99.90;;;;;;5011103;28;20048;-74
2022/09/17 11:56:28;;;;;;;2.75;0.60;;;12.80;99.90;;;;;;5039701;28;20079;-74
2022/09/17 11:59:22;;;;;;;1.00;0.35;;;13.10;99.90;;;;;;5057606;28;20040;-74
2022/09/17 12:02:01;;;;;;;3.75;0.65;;;12.90;99.90;;;;;;5057475;28;20090;-74
2022/09/17 12:04:35;;;;;;;1.23;0.60;;;13.00;99.90;;;;;;5057433;28;20044;-74
2022/09/17 12:07:31;;;;;;;1.42;0.32;;;13.20;99.90;;;;;;5057633;28;20388;-74
2022/09/17 12:10:16;;;;;;;2.08;0.70;;;13.50;99.90;;;;;;5029248;28;20044;-78
2022/09/17 12:12:54;;;;;;;3.65;0.55;;;13.80;99.90;;;;;;5057150;28;20078;-74
2022/09/17 12:15:32;;;;;;;3.00;0.90;;;;;;;;;;5057214;28;20048;-75
2022/09/17 12:18:22;;;;;;;1.00;0.50;;;14.30;99.90;;;;;;5057103;28;20088;-74
2022/09/17 12:20:52;;;;;;;4.63;1.00;;;14.40;99.90;;;;;;5020786;28;20075;-75
2022/09/17 12:23:45;;;;;;;3.08;0.90;;;14.20;99.90;;;;;;5037110;28;20045;-74
2022/09/17 12:26:28;;;;;;;0.80;0.47;;;13.70;99.90;;;;;;5037088;28;20044;-75
2022/09/17 12:29:01;;;;;;;5.32;0.70;;;14.00;99.90;;;;;;5020568;28;20033;-78
2022/09/17 12:32:10;;;;;;;1.08;0.60;;;14.10;99.90;;;;;;5037247;28;20431;-73
2022/09/17 12:35:01;;;;;;;1.42;0.68;;;14.00;99.90;;;;;;5026350;28;20114;-73
2022/09/17 12:38:04;;;;;;;7.68;0.70;;;14.20;99.90;;;;;;5036932;28;20052;-73
2022/09/17 12:40:38;;;;;;;2.10;0.65;;;14.30;99.80;;;;;;5036777;28;20051;-73
2022/09/17 12:43:16;;;;;;;4.90;0.60;;;14.60;99.80;;;;;;5036961;28;20408;-76
2022/09/17 12:45:51;;;;;;;2.75;0.40;;;14.70;99.90;;;;;;5036975;28;20051;-75
2022/09/17 12:48:31;;;;;;;2.35;0.68;;;14.70;99.90;;;;;;5036747;28;20063;-75
2022/09/17 12:51:18;;;;;;;4.28;1.13;;;14.60;98.90;;;;;;5036632;28;20187;-75
2022/09/17 12:54:02;;;;;;;0.70;0.47;;;14.70;95.50;;;;;;5036551;28;20044;-75
2022/09/17 12:56:54;;;;;;;1.45;0.40;;;14.70;94.10;;;;;;5036537;28;20135;-77
2022/09/17 12:59:27;;;;;;;1.13;0.70;;;14.40;87.60;;;;;;5020292;28;20555;-74
2022/09/17 13:02:21;;;;;;;1.85;0.80;;;14.40;91.00;;;;;;5036450;28;20094;-74
2022/09/17 13:05:25;;;;;;;1.70;0.68;;;14.50;93.00;;;;;;5036269;28;20043;-74
2022/09/17 13:08:35;;;;;;;4.03;0.65;;;14.50;90.90;;;;;;5019643;28;20040;-76
2022/09/17 13:11:16;;;;;;;1.20;0.63;;;14.10;91.60;;;;;;5016222;28;20045;-76
2022/09/17 13:14:02;;;;;;;1.77;0.38;;;14.20;91.50;;;;;;5036199;28;20045;-76
2022/09/17 13:16:32;;;;;;;3.42;0.50;;;14.50;92.40;;;;;;5036426;28;20369;-76
2022/09/17 13:19:21;;;;;;;2.28;0.77;;;14.70;87.20;;;;;;5027126;28;20519;-76
2022/09/17 13:21:59;;;;;;;2.35;0.57;;;14.50;89.30;;;;;;5039697;28;20135;-76
2022/09/17 13:24:29;;;;;;;1.60;0.60;;;14.50;91.20;;;;;;5055903;28;20040;-76
2022/09/17 13:26:57;;;;;;;2.25;0.45;;;14.60;88.90;;;;;;5039240;28;20042;-76